Time;durP1;ratioP1;P1;durP2;ratioP2;P2;SDS_P1;SDS_P2;PMS_P1;PMS_P2;Temp;Humidity;BMP_temperature;BMP_pressure;BME280_temperature;BME280_humidity;BME280_pressure;Samples;Min_cycle;Max_cycle;Signal;HPM_P1;HPM_P2
2022/10/30 00:02:37;;;;;;;32.47;10.63;;;14.20;99.90;;;;;;5042070;28;20394;-82
2022/10/30 00:05:22;;;;;;;30.63;12.10;;;14.10;99.90;;;;;;5040750;28;20399;-81
2022/10/30 00:08:06;;;;;;;14.20;10.70;;;14.10;99.90;;;;;;5040230;28;20387;-81
2022/10/30 00:10:50;;;;;;;19.00;12.20;;;14.10;99.90;;;;;;5041070;28;20421;-81
2022/10/30 00:13:35;;;;;;;20.87;11.40;;;14.00;99.90;;;;;;5040111;28;20379;-81
2022/10/30 00:16:19;;;;;;;17.43;11.43;;;14.00;99.90;;;;;;5039415;28;20839;-81
2022/10/30 00:19:04;;;;;;;19.73;9.93;;;14.00;99.90;;;;;;5039193;28;20497;-81
2022/10/30 00:21:53;;;;;;;18.40;10.80;;;14.00;99.90;;;;;;5045273;28;20438;-79
2022/10/30 00:24:44;;;;;;;14.90;10.57;;;13.90;99.90;;;;;;5026746;28;20398;-81
2022/10/30 00:27:50;;;;;;;11.40;9.57;;;14.00;99.90;;;;;;5006061;28;20758;-81
2022/10/30 00:30:39;;;;;;;21.03;11.80;;;14.00;99.90;;;;;;4973057;28;20436;-81
2022/10/30 00:33:25;;;;;;;15.17;10.43;;;14.00;99.90;;;;;;4983746;28;20544;-81
2022/10/30 00:36:12;;;;;;;18.10;10.80;;;14.00;99.90;;;;;;4983086;28;20409;-82
2022/10/30 00:39:05;;;;;;;12.97;11.67;;;13.90;99.90;;;;;;4930119;29;20526;-83
2022/10/30 00:41:49;;;;;;;21.10;11.20;;;13.80;99.90;;;;;;4957497;29;20442;-82
2022/10/30 00:44:42;;;;;;;17.40;11.37;;;13.80;99.90;;;;;;4950522;29;20506;-81
2022/10/30 00:47:33;;;;;;;18.67;10.60;;;13.80;99.90;;;;;;4957285;29;20431;-83
2022/10/30 00:50:26;;;;;;;31.37;10.60;;;13.80;99.90;;;;;;4960004;28;20431;-79
2022/10/30 00:53:14;;;;;;;11.80;9.33;;;13.90;99.90;;;;;;4962129;29;20757;-81
2022/10/30 00:56:04;;;;;;;12.30;10.77;;;13.90;99.90;;;;;;4979104;28;20432;-82
2022/10/30 00:58:54;;;;;;;16.73;9.73;;;14.00;99.90;;;;;;4999818;28;20539;-82
2022/10/30 01:01:46;;;;;;;16.63;10.90;;;13.90;99.90;;;;;;5003132;28;20401;-81
2022/10/30 01:04:52;;;;;;;17.27;11.23;;;13.90;99.90;;;;;;4976156;28;20446;-80
2022/10/30 01:07:38;;;;;;;16.10;11.53;;;13.90;99.90;;;;;;4970601;28;20405;-80
2022/10/30 01:10:24;;;;;;;20.07;10.40;;;13.90;99.90;;;;;;4977524;28;20385;-81
2022/10/30 01:13:09;;;;;;;11.37;10.27;;;13.80;99.90;;;;;;4990709;28;20400;-81
2022/10/30 01:16:16;;;;;;;12.23;10.03;;;13.80;99.90;;;;;;4962959;28;20412;-81
2022/10/30 01:19:59;;;;;;;14.97;11.00;;;13.80;99.90;;;;;;4921374;29;20527;-80
2022/10/30 01:23:07;;;;;;;15.77;9.77;;;13.80;99.90;;;;;;4947469;28;20414;-81
2022/10/30 01:26:27;;;;;;;19.83;10.77;;;13.80;99.90;;;;;;4960730;29;20439;-81
2022/10/30 01:29:40;;;;;;;16.23;10.73;;;13.80;99.90;;;;;;4926489;29;20428;-81
2022/10/30 01:33:16;;;;;;;13.00;9.67;;;13.80;99.90;;;;;;4924675;29;20813;-81
2022/10/30 01:36:26;;;;;;;14.10;9.17;;;13.80;99.90;;;;;;4864411;29;20474;-81
2022/10/30 01:39:34;;;;;;;17.63;10.10;;;13.70;99.90;;;;;;4901290;29;21021;-81
2022/10/30 01:42:43;;;;;;;17.73;10.40;;;13.70;99.90;;;;;;4884217;29;20434;-80
2022/10/30 01:45:49;;;;;;;16.57;8.87;;;13.80;99.90;;;;;;4879702;29;20438;-80
2022/10/30 01:49:01;;;;;;;15.10;11.40;;;13.80;99.90;;;;;;4880511;29;20408;-80
2022/10/30 01:52:19;;;;;;;13.30;9.30;;;14.00;99.90;;;;;;4891823;29;20417;-81
2022/10/30 01:55:33;;;;;;;14.77;9.73;;;14.10;99.90;;;;;;4869352;29;20419;-81
2022/10/30 01:58:30;;;;;;;20.40;9.80;;;14.10;99.90;;;;;;4886193;29;20861;-81
2022/10/30 02:01:42;;;;;;;17.20;10.63;;;14.10;99.90;;;;;;4885920;29;20408;-81
2022/10/30 02:04:27;;;;;;;10.83;8.47;;;14.10;99.90;;;;;;4863203;29;20406;-81
2022/10/30 02:07:18;;;;;;;10.33;8.57;;;14.10;99.90;;;;;;4853680;29;20407;-81
2022/10/30 02:10:24;;;;;;;12.00;9.73;;;14.10;99.90;;;;;;4868329;29;20410;-81
2022/10/30 02:13:15;;;;;;;17.03;12.60;;;14.10;99.90;;;;;;4863530;29;20458;-81
2022/10/30 02:16:22;;;;;;;10.47;8.47;;;14.10;99.90;;;;;;4880209;29;20434;-80
2022/10/30 02:19:29;;;;;;;10.00;8.23;;;14.10;99.90;;;;;;4873706;29;20503;-81
2022/10/30 02:22:14;;;;;;;18.13;9.80;;;14.10;99.90;;;;;;4855940;29;20410;-81
2022/10/30 02:24:58;;;;;;;12.63;9.37;;;14.10;99.90;;;;;;4866010;29;20429;-81
2022/10/30 02:27:53;;;;;;;9.37;8.43;;;14.20;99.90;;;;;;4910522;29;20494;-81
2022/10/30 02:30:46;;;;;;;9.53;8.57;;;14.10;99.90;;;;;;4904648;29;20420;-81
2022/10/30 02:33:57;;;;;;;12.60;9.57;;;14.10;99.90;;;;;;4909429;29;20526;-81
2022/10/30 02:37:03;;;;;;;14.50;8.83;;;14.10;99.90;;;;;;4877041;29;20423;-81
2022/10/30 02:39:54;;;;;;;16.03;9.80;;;14.00;99.90;;;;;;4903399;29;20767;-81
2022/10/30 02:42:40;;;;;;;12.20;9.13;;;14.10;99.90;;;;;;4889213;29;20409;-80
2022/10/30 02:45:49;;;;;;;14.80;8.30;;;14.10;99.90;;;;;;4907323;29;20424;-81
2022/10/30 02:48:34;;;;;;;9.70;8.67;;;14.10;99.90;;;;;;4874966;29;20434;-81
2022/10/30 02:51:21;;;;;;;17.60;9.10;;;14.10;99.90;;;;;;4882121;29;20396;-81
2022/10/30 02:54:28;;;;;;;11.03;8.77;;;14.10;99.90;;;;;;4906872;29;20469;-80
2022/10/30 02:57:15;;;;;;;17.13;8.97;;;14.10;99.90;;;;;;4856643;29;20510;-81
2022/10/30 03:00:01;;;;;;;13.03;7.67;;;14.10;99.90;;;;;;4870584;29;20418;-81
2022/10/30 03:02:47;;;;;;;8.50;7.40;;;14.10;99.90;;;;;;4845119;29;20498;-81
2022/10/30 03:05:32;;;;;;;14.87;8.80;;;14.10;99.90;;;;;;4811553;29;20409;-80
2022/10/30 03:08:20;;;;;;;9.60;8.60;;;14.10;99.90;;;;;;4829043;29;20575;-80
2022/10/30 03:11:08;;;;;;;19.20;9.50;;;14.10;99.90;;;;;;4789845;29;20435;-80
2022/10/30 03:13:53;;;;;;;10.30;9.27;;;14.00;99.90;;;;;;4824731;29;20498;-78
2022/10/30 03:16:39;;;;;;;9.73;8.20;;;13.90;99.90;;;;;;4825501;29;20946;-80
2022/10/30 03:19:28;;;;;;;13.03;8.73;;;13.90;99.90;;;;;;4820126;29;20464;-81
2022/10/30 03:22:14;;;;;;;11.93;8.77;;;13.90;99.90;;;;;;4836926;29;20484;-82
2022/10/30 03:24:59;;;;;;;10.90;7.57;;;13.90;99.90;;;;;;4846916;29;20409;-82
2022/10/30 03:27:45;;;;;;;8.73;7.47;;;13.90;99.90;;;;;;4873232;29;20796;-82
2022/10/30 03:30:37;;;;;;;10.23;8.10;;;13.90;99.90;;;;;;4920586;29;20833;-82
2022/10/30 03:33:49;;;;;;;8.80;7.90;;;13.90;99.90;;;;;;4940568;29;20440;-82
2022/10/30 03:36:33;;;;;;;10.40;7.60;;;13.90;99.90;;;;;;4893028;29;20829;-81
2022/10/30 03:39:22;;;;;;;11.10;8.10;;;13.80;99.90;;;;;;4887875;29;20461;-82
2022/10/30 03:42:10;;;;;;;13.37;8.40;;;13.70;99.90;;;;;;4875393;29;20405;-82
2022/10/30 03:44:59;;;;;;;11.20;9.00;;;13.60;99.90;;;;;;4874728;29;20413;-81
2022/10/30 03:47:45;;;;;;;14.33;8.83;;;13.60;99.90;;;;;;4871609;29;20560;-82
2022/10/30 03:50:36;;;;;;;17.67;8.20;;;13.50;99.90;;;;;;4887140;29;20417;-82
2022/10/30 03:53:22;;;;;;;16.80;9.40;;;13.40;99.90;;;;;;4905886;29;20485;-81
2022/10/30 03:56:08;;;;;;;10.87;7.83;;;13.40;99.90;;;;;;4893678;29;20820;-82
2022/10/30 03:58:54;;;;;;;9.10;8.17;;;13.60;99.90;;;;;;4867710;29;21085;-82
2022/10/30 04:01:41;;;;;;;12.70;8.10;;;13.70;99.90;;;;;;4894157;29;20479;-82
2022/10/30 04:04:25;;;;;;;8.40;7.50;;;13.70;99.90;;;;;;4881650;29;20400;-81
2022/10/30 04:07:15;;;;;;;12.17;7.20;;;13.70;99.90;;;;;;4894698;29;20489;-82
2022/10/30 04:10:01;;;;;;;9.23;7.63;;;13.70;99.90;;;;;;4931059;28;20429;-82
2022/10/30 04:12:47;;;;;;;12.53;7.87;;;13.70;99.90;;;;;;4969490;28;20430;-82
2022/10/30 04:15:35;;;;;;;11.97;7.60;;;13.60;99.90;;;;;;4975064;28;20468;-82
2022/10/30 04:18:22;;;;;;;12.20;8.40;;;13.60;99.90;;;;;;4970837;28;20487;-82
2022/10/30 04:21:08;;;;;;;12.00;7.97;;;13.60;99.90;;;;;;4988262;28;20526;-80
2022/10/30 04:23:55;;;;;;;12.23;7.50;;;13.60;99.90;;;;;;5022454;28;20391;-82
2022/10/30 04:26:40;;;;;;;17.40;8.57;;;13.50;99.90;;;;;;5021747;28;20407;-82
2022/10/30 04:29:24;;;;;;;12.40;8.30;;;13.40;99.90;;;;;;5007917;28;20407;-81
2022/10/30 04:32:09;;;;;;;9.03;8.20;;;13.30;99.90;;;;;;5030013;28;20430;-81
2022/10/30 04:35:15;;;;;;;10.20;7.67;;;13.30;99.90;;;;;;5029689;28;20492;-81
2022/10/30 04:38:12;;;;;;;10.40;8.07;;;13.30;99.90;;;;;;4990412;28;20462;-82
2022/10/30 04:41:01;;;;;;;9.57;7.80;;;13.00;99.90;;;;;;5020300;28;20447;-82
2022/10/30 04:43:49;;;;;;;13.77;8.30;;;12.90;99.90;;;;;;4995228;28;20446;-82
2022/10/30 04:46:38;;;;;;;11.97;7.57;;;12.80;99.90;;;;;;4976013;28;20486;-81
2022/10/30 04:49:27;;;;;;;15.67;6.90;;;12.80;99.90;;;;;;4956891;29;20440;-82
2022/10/30 04:52:12;;;;;;;12.57;7.83;;;12.70;99.90;;;;;;4940950;28;20519;-81
2022/10/30 04:54:58;;;;;;;12.27;7.30;;;12.70;99.90;;;;;;4981575;28;20437;-81
2022/10/30 04:57:43;;;;;;;10.70;7.23;;;12.80;99.90;;;;;;4941787;28;20425;-81
2022/10/30 05:00:31;;;;;;;11.60;7.87;;;13.00;99.90;;;;;;4982173;28;20434;-83
2022/10/30 05:03:36;;;;;;;15.17;7.97;;;13.00;99.90;;;;;;4924849;29;20458;-82
2022/10/30 05:06:25;;;;;;;13.67;8.23;;;13.10;99.90;;;;;;4910870;29;20474;-82
2022/10/30 05:09:10;;;;;;;8.73;7.70;;;13.10;99.90;;;;;;4911203;29;20598;-82
2022/10/30 05:11:55;;;;;;;9.70;7.13;;;13.20;99.90;;;;;;4926271;29;20500;-81
2022/10/30 05:14:41;;;;;;;10.23;8.27;;;13.30;99.90;;;;;;4911424;29;20460;-80
2022/10/30 05:17:28;;;;;;;11.00;8.40;;;13.30;99.90;;;;;;4925264;29;20412;-80
2022/10/30 05:20:19;;;;;;;16.93;7.77;;;13.30;99.90;;;;;;4868676;29;20431;-82
2022/10/30 05:23:14;;;;;;;9.37;8.60;;;13.30;99.90;;;;;;4879389;29;20421;-81
2022/10/30 05:26:21;;;;;;;9.80;8.63;;;13.20;99.90;;;;;;4859738;29;20474;-82
2022/10/30 05:29:07;;;;;;;16.10;9.10;;;13.10;99.90;;;;;;4848789;29;20415;-81
2022/10/30 05:31:56;;;;;;;13.30;8.70;;;13.00;99.90;;;;;;4848726;29;20415;-81
2022/10/30 05:34:44;;;;;;;7.93;7.27;;;13.10;99.90;;;;;;4870674;29;20461;-80
2022/10/30 05:37:51;;;;;;;20.70;7.73;;;13.20;99.90;;;;;;4849651;29;20483;-81
2022/10/30 05:40:36;;;;;;;9.43;7.37;;;13.20;99.90;;;;;;4848728;29;20416;-80
2022/10/30 05:43:23;;;;;;;13.23;8.13;;;13.10;99.90;;;;;;4848909;29;20416;-81
2022/10/30 05:46:08;;;;;;;11.40;7.10;;;13.10;99.90;;;;;;4835558;29;20461;-81
2022/10/30 05:48:54;;;;;;;12.80;6.93;;;13.10;99.90;;;;;;4850982;29;20917;-82
2022/10/30 05:51:44;;;;;;;14.90;9.30;;;13.10;99.90;;;;;;4888148;29;20413;-81
2022/10/30 05:54:31;;;;;;;11.07;6.97;;;13.10;99.90;;;;;;4891260;29;20971;-83
2022/10/30 05:57:36;;;;;;;16.57;7.43;;;13.10;99.90;;;;;;4847841;29;20496;-81
2022/10/30 06:00:24;;;;;;;10.93;7.83;;;13.20;99.90;;;;;;4835365;29;20925;-80
2022/10/30 06:03:11;;;;;;;9.13;8.23;;;13.20;99.90;;;;;;4830043;29;21006;-82
2022/10/30 06:05:57;;;;;;;10.77;7.50;;;13.20;99.90;;;;;;4830659;29;20768;-82
2022/10/30 06:08:44;;;;;;;17.33;9.47;;;13.20;99.90;;;;;;4829869;29;20995;-81
2022/10/30 06:11:32;;;;;;;13.20;8.57;;;13.20;99.90;;;;;;4847837;29;20414;-81
2022/10/30 06:14:16;;;;;;;14.60;7.43;;;13.20;99.90;;;;;;4865499;29;20418;-81
2022/10/30 06:17:07;;;;;;;13.13;8.00;;;13.20;99.90;;;;;;4866783;29;20957;-80
2022/10/30 06:19:52;;;;;;;13.00;8.33;;;13.20;99.90;;;;;;4873298;29;20463;-80
2022/10/30 06:22:38;;;;;;;12.63;8.10;;;13.20;99.90;;;;;;4925520;29;20378;-80
2022/10/30 06:25:46;;;;;;;11.60;7.83;;;13.20;99.90;;;;;;4925787;29;20404;-80
2022/10/30 06:28:33;;;;;;;13.67;8.53;;;13.00;99.90;;;;;;4895031;29;20770;-80
2022/10/30 06:31:19;;;;;;;13.80;8.93;;;12.90;99.90;;;;;;4895553;29;20446;-81
2022/10/30 06:34:06;;;;;;;11.30;9.30;;;12.70;99.90;;;;;;4887158;29;20438;-80
2022/10/30 06:36:52;;;;;;;14.27;8.67;;;12.70;99.90;;;;;;4900125;29;20478;-80
2022/10/30 06:39:37;;;;;;;21.83;9.10;;;12.70;99.90;;;;;;4844518;29;20430;-80
2022/10/30 06:42:42;;;;;;;19.30;10.50;;;12.70;99.90;;;;;;4939046;29;20411;-81
2022/10/30 06:45:29;;;;;;;20.77;11.17;;;12.60;99.90;;;;;;4950923;28;20753;-78
2022/10/30 06:48:21;;;;;;;11.03;10.00;;;12.70;99.90;;;;;;4938172;29;20391;-78
2022/10/30 06:51:10;;;;;;;21.23;9.50;;;12.60;99.90;;;;;;4905031;29;20411;-79
2022/10/30 06:53:56;;;;;;;15.73;9.23;;;12.50;99.90;;;;;;4945677;29;20404;-79
2022/10/30 06:56:43;;;;;;;16.23;9.63;;;12.50;99.90;;;;;;4941495;29;20856;-81
2022/10/30 06:59:27;;;;;;;13.93;8.40;;;12.50;99.90;;;;;;4939367;29;20455;-81
2022/10/30 07:02:14;;;;;;;11.10;9.30;;;12.60;99.90;;;;;;4912109;29;20429;-81
2022/10/30 07:05:03;;;;;;;13.23;9.33;;;12.60;99.90;;;;;;4966306;28;20425;-82
2022/10/30 07:07:47;;;;;;;8.40;7.53;;;12.60;99.90;;;;;;4963867;29;20442;-81
2022/10/30 07:10:41;;;;;;;12.53;9.07;;;12.50;99.90;;;;;;4951305;29;20433;-81
2022/10/30 07:13:25;;;;;;;9.87;8.30;;;12.50;99.90;;;;;;4970059;28;20397;-80
2022/10/30 07:16:09;;;;;;;16.20;8.77;;;12.50;99.90;;;;;;4988798;28;20408;-82
2022/10/30 07:18:57;;;;;;;12.63;9.80;;;12.60;99.90;;;;;;4989369;28;20459;-80
2022/10/30 07:21:56;;;;;;;13.60;8.07;;;12.70;99.90;;;;;;4975573;28;20385;-81
2022/10/30 07:24:40;;;;;;;12.87;8.30;;;12.80;99.90;;;;;;5027706;28;20457;-80
2022/10/30 07:27:26;;;;;;;8.70;7.90;;;12.70;99.90;;;;;;5028891;28;20438;-80
2022/10/30 07:30:17;;;;;;;15.70;9.53;;;12.60;99.90;;;;;;5014214;28;20435;-80
2022/10/30 07:33:05;;;;;;;11.67;7.87;;;12.60;99.90;;;;;;4989997;28;20412;-82
2022/10/30 07:35:52;;;;;;;16.30;9.10;;;12.60;99.90;;;;;;5001862;28;20517;-83
2022/10/30 07:38:37;;;;;;;11.60;8.43;;;12.70;99.90;;;;;;4988917;28;20452;-81
2022/10/30 07:41:25;;;;;;;14.83;9.00;;;12.70;99.90;;;;;;5002339;28;20397;-81
2022/10/30 07:44:14;;;;;;;9.23;8.03;;;12.80;99.90;;;;;;4992629;28;20443;-82
2022/10/30 07:46:58;;;;;;;12.93;9.03;;;13.00;99.90;;;;;;5040786;28;20518;-82
2022/10/30 07:49:42;;;;;;;14.50;10.40;;;13.30;99.90;;;;;;5027916;28;20399;-82
2022/10/30 07:52:31;;;;;;;14.60;10.73;;;13.60;99.90;;;;;;5028456;28;20611;-80
2022/10/30 07:55:16;;;;;;;13.47;10.60;;;14.00;99.90;;;;;;5041906;28;20394;-82
2022/10/30 07:58:01;;;;;;;12.90;9.80;;;14.20;99.90;;;;;;5041503;28;21000;-82
2022/10/30 08:00:47;;;;;;;18.73;10.97;;;14.40;99.90;;;;;;5041859;28;20406;-81
2022/10/30 08:03:32;;;;;;;13.40;9.63;;;14.40;99.90;;;;;;4999935;28;20407;-81
2022/10/30 08:06:17;;;;;;;9.90;9.00;;;14.50;99.90;;;;;;5021511;28;20411;-82
2022/10/30 08:09:02;;;;;;;11.60;9.37;;;14.50;99.90;;;;;;5020891;28;20443;-81
2022/10/30 08:11:48;;;;;;;13.47;10.97;;;14.40;99.90;;;;;;5021255;28;20476;-82
2022/10/30 08:14:33;;;;;;;12.07;9.60;;;14.40;99.90;;;;;;5001668;28;20408;-80
2022/10/30 08:17:19;;;;;;;14.60;9.80;;;14.50;99.90;;;;;;5001006;28;20821;-80
2022/10/30 08:20:07;;;;;;;9.90;9.00;;;14.80;99.90;;;;;;5014592;28;20409;-81
2022/10/30 08:22:59;;;;;;;16.27;9.80;;;15.30;99.90;;;;;;5001411;28;20428;-81
2022/10/30 08:26:05;;;;;;;14.10;10.07;;;15.80;99.90;;;;;;4962712;29;20394;-82
2022/10/30 08:28:53;;;;;;;13.10;9.60;;;16.00;99.90;;;;;;4951842;28;20402;-81
2022/10/30 08:31:39;;;;;;;14.67;10.57;;;16.50;99.90;;;;;;4964737;29;20410;-81
2022/10/30 08:34:26;;;;;;;12.80;10.20;;;17.40;99.90;;;;;;4950276;29;20671;-82
2022/10/30 08:37:14;;;;;;;10.67;9.57;;;18.00;99.90;;;;;;4965222;29;20488;-80
2022/10/30 08:39:59;;;;;;;14.17;10.77;;;18.40;99.90;;;;;;4939244;28;20414;-81
2022/10/30 08:42:50;;;;;;;13.93;9.80;;;18.60;99.90;;;;;;4964365;29;20402;-81
2022/10/30 08:45:36;;;;;;;14.97;9.80;;;18.50;99.90;;;;;;4952271;29;20458;-82
2022/10/30 08:48:22;;;;;;;12.43;10.03;;;18.80;99.90;;;;;;4964825;29;20881;-82
2022/10/30 08:51:07;;;;;;;10.47;9.23;;;19.20;99.90;;;;;;4964958;29;20443;-82
2022/10/30 08:53:59;;;;;;;9.53;8.10;;;19.60;99.90;;;;;;4963449;28;20493;-80
2022/10/30 08:56:44;;;;;;;14.63;9.10;;;19.80;99.90;;;;;;4987507;28;20460;-80
2022/10/30 08:59:33;;;;;;;18.00;9.10;;;20.00;99.90;;;;;;5000532;28;20504;-81
2022/10/30 09:02:20;;;;;;;16.40;10.67;;;19.90;99.90;;;;;;5001356;28;20502;-81
2022/10/30 09:05:08;;;;;;;10.60;8.83;;;20.30;99.90;;;;;;5002731;28;20460;-81
2022/10/30 09:07:59;;;;;;;10.87;8.90;;;21.00;99.90;;;;;;4975198;28;20499;-81
2022/10/30 09:10:44;;;;;;;13.23;8.07;;;21.10;99.90;;;;;;5042930;28;20426;-81
2022/10/30 09:13:28;;;;;;;9.03;7.80;;;21.30;99.90;;;;;;5065518;28;20416;-80
2022/10/30 09:16:13;;;;;;;6.70;6.10;;;21.40;99.90;;;;;;5055545;28;20900;-81
2022/10/30 09:18:57;;;;;;;12.00;7.90;;;20.50;99.90;;;;;;5084888;28;20483;-82
2022/10/30 09:21:42;;;;;;;8.00;7.10;;;21.20;99.90;;;;;;5083650;28;20447;-82
2022/10/30 09:24:26;;;;;;;8.50;7.03;;;21.50;99.90;;;;;;5028113;28;20922;-82
2022/10/30 09:27:11;;;;;;;9.73;6.80;;;20.70;99.90;;;;;;5014746;28;20418;-82
2022/10/30 09:29:56;;;;;;;6.90;6.20;;;20.50;99.90;;;;;;5028647;28;20394;-82
2022/10/30 09:32:43;;;;;;;10.43;6.60;;;20.50;99.90;;;;;;5009793;28;20533;-81
2022/10/30 09:35:31;;;;;;;6.60;6.00;;;20.50;99.90;;;;;;4994856;28;20522;-82
2022/10/30 09:38:36;;;;;;;8.70;7.17;;;20.60;99.90;;;;;;5003028;28;20625;-82
2022/10/30 09:41:44;;;;;;;8.50;6.50;;;21.00;99.90;;;;;;4989633;28;20412;-81
2022/10/30 09:44:52;;;;;;;7.03;6.30;;;21.10;99.90;;;;;;4991772;28;20415;-82
2022/10/30 09:48:20;;;;;;;13.33;8.70;;;22.20;99.90;;;;;;4992531;28;20389;-79
2022/10/30 09:51:44;;;;;;;11.17;7.93;;;23.20;99.90;;;;;;4949659;29;20861;-82
2022/10/30 09:54:55;;;;;;;7.93;7.13;;;24.10;99.90;;;;;;4947737;29;20486;-81
2022/10/30 09:58:00;;;;;;;8.97;7.70;;;24.90;99.90;;;;;;4978374;28;20436;-82
2022/10/30 10:00:56;;;;;;;9.60;8.37;;;25.30;99.90;;;;;;4952459;28;20401;-81
2022/10/30 10:03:58;;;;;;;12.53;8.43;;;25.30;99.90;;;;;;4966008;28;20458;-81
2022/10/30 10:06:45;;;;;;;9.10;8.17;;;25.30;99.90;;;;;;4960030;29;21031;-81
2022/10/30 10:09:36;;;;;;;9.60;7.53;;;26.20;99.90;;;;;;4966629;28;20531;-81
2022/10/30 10:12:29;;;;;;;10.10;8.80;;;26.10;99.90;;;;;;4966235;28;20389;-80
2022/10/30 10:15:28;;;;;;;13.50;8.70;;;27.00;99.90;;;;;;4966200;28;20953;-81
2022/10/30 10:18:34;;;;;;;9.33;7.93;;;28.00;99.90;;;;;;4952313;28;20468;-80
2022/10/30 10:21:25;;;;;;;9.37;7.47;;;28.50;99.90;;;;;;4999940;28;20476;-82
2022/10/30 10:24:22;;;;;;;8.10;6.77;;;28.20;99.90;;;;;;5064463;28;20420;-82
2022/10/30 10:27:31;;;;;;;7.77;6.67;;;27.80;99.90;;;;;;5033222;28;20421;-82
2022/10/30 10:30:19;;;;;;;9.80;6.73;;;27.30;99.90;;;;;;5048165;28;20386;-82
2022/10/30 10:33:36;;;;;;;8.40;6.53;;;26.90;99.90;;;;;;4984761;28;20536;-82
2022/10/30 10:36:35;;;;;;;9.13;6.37;;;25.50;99.90;;;;;;4989745;28;20429;-82
2022/10/30 10:39:33;;;;;;;7.17;6.37;;;25.80;99.90;;;;;;4985987;28;20416;-82
2022/10/30 10:42:28;;;;;;;14.37;7.17;;;26.30;99.90;;;;;;4986540;28;20420;-81
2022/10/30 10:45:43;;;;;;;5.97;5.47;;;26.50;99.90;;;;;;4986038;28;20439;-83
2022/10/30 10:49:04;;;;;;;6.83;6.23;;;25.30;99.90;;;;;;4999884;28;20537;-81
2022/10/30 10:51:57;;;;;;;8.40;5.23;;;25.80;99.90;;;;;;5004487;28;20436;-80
2022/10/30 10:54:44;;;;;;;10.00;7.40;;;25.70;99.90;;;;;;4986904;28;20407;-84
2022/10/30 10:57:33;;;;;;;11.00;6.10;;;26.70;99.90;;;;;;5000942;28;20438;-83
2022/10/30 11:00:21;;;;;;;10.83;6.87;;;27.00;99.90;;;;;;4996467;28;20424;-83
2022/10/30 11:03:13;;;;;;;16.53;10.10;;;27.20;99.90;;;;;;5012967;28;20411;-83
2022/10/30 11:06:03;;;;;;;8.20;6.17;;;26.70;99.90;;;;;;5066037;28;20396;-83
2022/10/30 11:08:51;;;;;;;9.17;5.87;;;26.10;99.90;;;;;;5081784;28;20527;-83
2022/10/30 11:11:36;;;;;;;7.87;6.93;;;26.70;99.90;;;;;;5077406;28;20387;-84
2022/10/30 11:14:23;;;;;;;10.30;6.80;;;26.70;99.90;;;;;;5083517;28;20456;-83
2022/10/30 11:17:32;;;;;;;8.60;7.13;;;25.70;99.90;;;;;;5082158;28;20381;-83
2022/10/30 11:20:26;;;;;;;7.83;6.03;;;26.10;99.90;;;;;;5079692;28;20466;-84
2022/10/30 11:23:40;;;;;;;13.63;6.50;;;26.80;99.90;;;;;;5080597;28;20439;-84
2022/10/30 11:26:28;;;;;;;13.13;6.80;;;27.20;99.90;;;;;;5081938;28;20719;-84
2022/10/30 11:29:18;;;;;;;5.67;5.17;;;27.20;99.90;;;;;;5085083;28;20991;-82
2022/10/30 11:32:04;;;;;;;7.37;6.60;;;27.20;99.90;;;;;;5086255;28;20504;-83
2022/10/30 11:35:10;;;;;;;7.07;6.37;;;27.30;99.90;;;;;;5084766;28;20459;-82
2022/10/30 11:38:12;;;;;;;12.83;6.40;;;26.10;99.90;;;;;;5084819;28;20473;-82
2022/10/30 11:40:57;;;;;;;18.67;6.57;;;25.90;99.90;;;;;;5085174;28;20432;-83
2022/10/30 11:43:43;;;;;;;6.60;5.20;;;25.60;99.90;;;;;;5070019;28;20401;-83
2022/10/30 11:46:27;;;;;;;11.70;5.80;;;26.20;99.90;;;;;;5069754;28;20520;-82
2022/10/30 11:49:28;;;;;;;9.60;6.60;;;26.80;99.90;;;;;;5085617;28;20478;-83
2022/10/30 11:52:18;;;;;;;10.03;5.90;;;27.10;99.90;;;;;;5087007;28;20385;-83
2022/10/30 11:55:10;;;;;;;4.93;4.53;;;27.20;99.90;;;;;;5072082;28;20392;-82
2022/10/30 11:57:57;;;;;;;8.97;7.57;;;27.20;99.90;;;;;;5023462;28;20423;-82
2022/10/30 12:00:43;;;;;;;11.00;6.83;;;27.60;99.90;;;;;;5010812;28;20391;-81
2022/10/30 12:03:37;;;;;;;8.07;5.70;;;27.90;99.90;;;;;;4996944;28;20387;-82
2022/10/30 12:06:31;;;;;;;7.10;5.10;;;26.60;99.90;;;;;;5014525;28;20403;-82
2022/10/30 12:09:20;;;;;;;12.40;6.70;;;27.60;99.90;;;;;;5027768;28;20910;-82
2022/10/30 12:12:11;;;;;;;9.33;6.80;;;27.00;99.90;;;;;;5028489;28;20411;-81
2022/10/30 12:15:09;;;;;;;8.33;5.20;;;27.10;99.90;;;;;;5003668;28;20904;-80
2022/10/30 12:17:59;;;;;;;8.73;7.43;;;27.20;99.90;;;;;;5003253;28;20527;-80
2022/10/30 12:20:50;;;;;;;12.03;7.00;;;26.70;99.90;;;;;;5017136;28;20392;-81
2022/10/30 12:23:35;;;;;;;12.03;5.50;;;26.70;99.90;;;;;;5020469;28;20407;-82
2022/10/30 12:26:22;;;;;;;9.00;6.00;;;27.40;99.90;;;;;;5002211;28;20506;-80
2022/10/30 12:29:14;;;;;;;5.70;4.97;;;27.20;99.90;;;;;;5061140;28;20475;-82
2022/10/30 12:32:04;;;;;;;7.63;5.70;;;27.20;99.90;;;;;;5079797;28;20489;-82
2022/10/30 12:34:59;;;;;;;12.83;7.03;;;27.20;99.90;;;;;;5079361;28;20455;-81
2022/10/30 12:37:43;;;;;;;8.23;5.67;;;26.80;99.90;;;;;;5079853;28;20396;-81
2022/10/30 12:40:31;;;;;;;15.10;6.30;;;27.10;99.90;;;;;;5080848;28;20733;-82
2022/10/30 12:43:23;;;;;;;7.97;6.43;;;27.30;99.90;;;;;;5065139;28;20490;-81
2022/10/30 12:46:32;;;;;;;9.07;5.77;;;26.60;99.90;;;;;;5080738;28;20849;-82
2022/10/30 12:49:39;;;;;;;9.37;5.20;;;25.60;99.90;;;;;;5079929;28;20550;-81
2022/10/30 12:52:32;;;;;;;9.70;5.70;;;26.00;99.90;;;;;;5080826;28;20385;-80
2022/10/30 12:55:26;;;;;;;6.93;5.80;;;26.00;99.90;;;;;;5080277;28;20392;-81
2022/10/30 12:58:36;;;;;;;7.83;5.67;;;26.40;99.90;;;;;;5092409;28;20423;-82
2022/10/30 13:01:31;;;;;;;8.13;5.63;;;26.60;99.90;;;;;;5093768;28;20488;-82
2022/10/30 13:04:20;;;;;;;8.40;5.90;;;26.90;99.90;;;;;;5079753;28;20492;-82
2022/10/30 13:07:37;;;;;;;13.17;6.67;;;27.00;99.90;;;;;;5083738;28;20418;-83
2022/10/30 13:10:39;;;;;;;7.33;5.53;;;26.70;99.90;;;;;;5048129;28;20410;-82
2022/10/30 13:13:29;;;;;;;10.33;6.27;;;26.40;99.90;;;;;;5065292;28;20384;-82
2022/10/30 13:16:28;;;;;;;8.27;5.63;;;25.50;99.90;;;;;;5080280;28;20434;-82
2022/10/30 13:19:13;;;;;;;7.57;6.70;;;25.50;99.90;;;;;;5081889;28;20392;-83
2022/10/30 13:22:07;;;;;;;13.33;8.37;;;25.40;99.90;;;;;;5067479;28;20491;-82
2022/10/30 13:25:20;;;;;;;8.57;5.30;;;25.30;99.90;;;;;;5081830;28;20396;-83
2022/10/30 13:28:21;;;;;;;6.07;5.47;;;26.20;99.90;;;;;;5081521;28;20994;-83
2022/10/30 13:31:16;;;;;;;4.87;4.43;;;26.30;99.90;;;;;;5066323;28;20389;-83
2022/10/30 13:34:31;;;;;;;12.07;6.07;;;26.10;99.90;;;;;;5066775;28;20386;-83
2022/10/30 13:37:41;;;;;;;11.50;6.63;;;26.40;99.90;;;;;;5067007;28;20454;-82
2022/10/30 13:40:39;;;;;;;11.27;6.73;;;27.00;99.90;;;;;;5083604;28;20396;-82
2022/10/30 13:43:34;;;;;;;9.33;5.80;;;27.50;99.90;;;;;;5084072;28;20420;-82
2022/10/30 13:46:49;;;;;;;13.77;6.47;;;27.20;99.90;;;;;;5082270;28;20404;-83
2022/10/30 13:50:04;;;;;;;7.40;5.07;;;26.90;99.90;;;;;;5020280;28;20462;-82
2022/10/30 13:52:54;;;;;;;4.90;4.40;;;26.60;99.90;;;;;;5020565;28;20418;-82
2022/10/30 13:55:40;;;;;;;5.67;5.10;;;26.50;99.90;;;;;;5019240;28;20451;-82
2022/10/30 13:58:33;;;;;;;8.20;5.10;;;26.40;99.90;;;;;;5019795;28;20554;-82
2022/10/30 14:01:31;;;;;;;14.20;7.37;;;26.30;99.90;;;;;;5020453;28;20507;-81
2022/10/30 14:04:29;;;;;;;12.10;7.80;;;26.20;99.90;;;;;;5022411;28;20521;-81
2022/10/30 14:07:37;;;;;;;6.73;4.40;;;25.60;99.90;;;;;;5020729;28;20403;-81
2022/10/30 14:10:50;;;;;;;10.13;5.50;;;25.00;99.90;;;;;;5020968;28;20766;-82
2022/10/30 14:13:48;;;;;;;6.43;5.70;;;24.80;99.90;;;;;;5010032;28;20423;-83
2022/10/30 14:16:42;;;;;;;14.70;7.57;;;24.40;99.90;;;;;;5020008;28;20443;-83
2022/10/30 14:19:26;;;;;;;10.53;7.27;;;24.20;99.90;;;;;;5033643;28;20401;-81
2022/10/30 14:22:23;;;;;;;10.83;7.80;;;24.10;99.90;;;;;;5052325;28;20484;-82
2022/10/30 14:25:13;;;;;;;9.50;6.00;;;23.60;99.90;;;;;;5066873;28;20892;-81
2022/10/30 14:28:18;;;;;;;13.87;7.50;;;23.70;99.90;;;;;;5082362;28;20484;-82
2022/10/30 14:31:09;;;;;;;7.93;5.80;;;23.50;99.90;;;;;;5019745;28;20434;-80
2022/10/30 14:33:54;;;;;;;10.67;6.83;;;23.20;99.90;;;;;;5004590;28;20383;-82
2022/10/30 14:36:47;;;;;;;19.30;8.50;;;22.90;99.90;;;;;;5005797;28;20462;-82
2022/10/30 14:39:39;;;;;;;12.27;7.77;;;22.80;99.90;;;;;;5009066;28;20406;-82
2022/10/30 14:42:49;;;;;;;13.40;8.23;;;22.70;99.90;;;;;;5022658;28;20781;-82
2022/10/30 14:46:03;;;;;;;15.20;9.30;;;22.50;99.90;;;;;;5008465;28;20406;-83
2022/10/30 14:49:17;;;;;;;13.37;10.07;;;22.50;99.90;;;;;;4983001;28;20493;-82
2022/10/30 14:52:41;;;;;;;15.73;7.40;;;22.60;99.90;;;;;;4972315;28;20397;-81